Time;durP1;ratioP1;P1;durP2;ratioP2;P2;SDS_P1;SDS_P2;PMS_P1;PMS_P2;Temp;Humidity;BMP_temperature;BMP_pressure;BME280_temperature;BME280_humidity;BME280_pressure;Samples;Min_cycle;Max_cycle;Signal;HPM_P1;HPM_P2
2021/04/30 00:01:41;;;;;;;9.50;6.20;;;9.50;70.80;;;;;;5100732;28;20210;-76
2021/04/30 00:04:06;;;;;;;10.60;6.67;;;9.60;69.90;;;;;;5092763;28;20186;-75
2021/04/30 00:06:32;;;;;;;13.60;6.70;;;9.60;69.80;;;;;;5103230;28;20555;-76
2021/04/30 00:08:58;;;;;;;11.40;6.80;;;9.50;69.80;;;;;;5111645;28;20555;-74
2021/04/30 00:11:24;;;;;;;14.33;6.87;;;9.60;70.10;;;;;;5100664;28;20690;-74
2021/04/30 00:13:49;;;;;;;9.83;6.70;;;9.60;69.50;;;;;;5095280;28;20182;-74
2021/04/30 00:16:15;;;;;;;9.93;7.40;;;9.60;69.50;;;;;;5100473;28;20274;-75
2021/04/30 00:18:41;;;;;;;14.40;7.27;;;9.60;69.10;;;;;;5107491;28;20207;-76
2021/04/30 00:21:07;;;;;;;15.10;7.17;;;9.50;69.10;;;;;;5112923;28;20202;-75
2021/04/30 00:23:33;;;;;;;10.97;7.40;;;9.50;68.80;;;;;;5113306;28;20469;-75
2021/04/30 00:26:03;;;;;;;19.63;7.57;;;9.50;68.90;;;;;;5110209;28;20431;-76
2021/04/30 00:28:29;;;;;;;11.67;7.33;;;9.40;68.80;;;;;;5110126;28;20799;-75
2021/04/30 00:30:55;;;;;;;11.97;7.80;;;9.40;68.80;;;;;;5113406;28;21042;-75
2021/04/30 00:33:22;;;;;;;11.43;7.87;;;9.30;68.80;;;;;;5114652;28;21288;-76
2021/04/30 00:35:48;;;;;;;13.20;8.00;;;9.30;69.20;;;;;;5114626;28;20451;-76
2021/04/30 00:38:14;;;;;;;11.90;7.60;;;9.20;69.50;;;;;;5112447;28;20431;-76
2021/04/30 00:40:40;;;;;;;12.90;7.70;;;9.20;69.50;;;;;;5111978;28;20843;-74
2021/04/30 00:43:06;;;;;;;13.30;6.70;;;9.20;69.20;;;;;;5111793;28;20471;-75
2021/04/30 00:45:32;;;;;;;12.80;8.03;;;9.10;69.80;;;;;;5100900;28;20187;-74
2021/04/30 00:47:58;;;;;;;12.93;7.87;;;9.20;69.70;;;;;;5107528;28;20442;-75
2021/04/30 00:50:27;;;;;;;12.50;7.70;;;9.20;69.40;;;;;;5111262;28;20831;-74
2021/04/30 00:52:53;;;;;;;10.83;7.33;;;9.30;69.20;;;;;;5112493;28;20448;-74
2021/04/30 00:55:21;;;;;;;12.90;7.70;;;9.20;69.40;;;;;;5113264;28;20491;-74
2021/04/30 00:57:58;;;;;;;13.10;7.60;;;9.20;69.10;;;;;;5114585;28;20254;-74
2021/04/30 01:00:26;;;;;;;11.60;7.73;;;9.10;69.20;;;;;;5112114;28;20437;-75
2021/04/30 01:02:52;;;;;;;10.40;7.00;;;9.10;69.20;;;;;;5109847;28;20463;-75
2021/04/30 01:05:18;;;;;;;15.47;7.87;;;9.00;69.50;;;;;;5109850;28;20427;-74
2021/04/30 01:07:45;;;;;;;13.97;8.00;;;9.00;69.40;;;;;;5110793;28;20438;-74
2021/04/30 01:10:12;;;;;;;13.20;7.50;;;9.00;69.40;;;;;;5096434;28;20463;-75
2021/04/30 01:12:38;;;;;;;10.97;7.63;;;8.90;68.80;;;;;;5109137;28;20986;-74
2021/04/30 01:15:05;;;;;;;16.57;8.63;;;8.90;69.70;;;;;;5110199;28;20421;-76
2021/04/30 01:17:33;;;;;;;13.33;7.87;;;8.90;69.40;;;;;;5110441;28;20423;-73
2021/04/30 01:19:59;;;;;;;11.57;7.40;;;8.90;69.50;;;;;;5110215;28;20416;-76
2021/04/30 01:22:36;;;;;;;13.17;7.87;;;8.90;68.60;;;;;;5110436;28;20670;-75
2021/04/30 01:25:04;;;;;;;12.37;7.43;;;9.00;68.20;;;;;;5110634;28;20638;-76
2021/04/30 01:27:30;;;;;;;11.97;7.00;;;8.90;68.50;;;;;;5110909;28;20427;-75
2021/04/30 01:29:56;;;;;;;11.37;7.00;;;9.00;68.50;;;;;;5107666;28;20447;-74
2021/04/30 01:32:22;;;;;;;14.60;7.43;;;9.10;67.70;;;;;;5090386;28;20211;-76
2021/04/30 01:34:48;;;;;;;17.10;9.80;;;9.00;67.30;;;;;;5104488;28;20420;-74
2021/04/30 01:37:14;;;;;;;13.33;8.10;;;9.00;66.90;;;;;;5101600;28;20423;-75
2021/04/30 01:39:40;;;;;;;14.13;7.53;;;9.00;66.70;;;;;;5112823;28;20435;-75
2021/04/30 01:42:07;;;;;;;12.67;7.20;;;9.00;66.70;;;;;;5112956;28;20292;-75
2021/04/30 01:44:32;;;;;;;12.77;8.00;;;9.10;66.40;;;;;;5111711;28;20436;-75
2021/04/30 01:46:59;;;;;;;14.17;7.70;;;9.00;66.90;;;;;;5103172;28;21183;-77
2021/04/30 01:49:25;;;;;;;10.93;7.00;;;9.00;67.00;;;;;;5111350;28;20223;-75
2021/04/30 01:51:52;;;;;;;12.07;7.23;;;9.00;66.70;;;;;;5104049;28;20542;-76
2021/04/30 01:54:17;;;;;;;14.37;8.43;;;9.10;66.40;;;;;;5115042;28;20524;-77
2021/04/30 01:56:43;;;;;;;12.53;8.30;;;9.10;66.60;;;;;;5116272;28;20440;-76
2021/04/30 01:59:09;;;;;;;11.70;7.37;;;9.00;66.10;;;;;;5122815;28;20208;-76
2021/04/30 02:01:35;;;;;;;14.17;8.60;;;9.10;66.30;;;;;;5122314;28;20256;-75
2021/04/30 02:04:01;;;;;;;13.80;8.10;;;9.10;65.70;;;;;;5115961;28;20486;-75
2021/04/30 02:06:27;;;;;;;16.37;9.70;;;9.00;66.10;;;;;;5120956;28;20194;-75
2021/04/30 02:08:56;;;;;;;17.03;8.03;;;8.90;66.40;;;;;;5097220;28;20449;-76
2021/04/30 02:11:22;;;;;;;13.47;8.00;;;9.00;66.70;;;;;;5107948;28;20230;-77
2021/04/30 02:13:47;;;;;;;12.70;7.73;;;9.10;66.10;;;;;;5114598;28;20574;-74
2021/04/30 02:16:13;;;;;;;14.17;8.27;;;9.10;65.40;;;;;;5096947;28;20417;-75
2021/04/30 02:18:39;;;;;;;14.23;8.93;;;9.00;66.00;;;;;;5109083;28;20917;-75
2021/04/30 02:21:05;;;;;;;16.27;9.17;;;9.10;66.10;;;;;;5128525;28;20217;-74
2021/04/30 02:23:31;;;;;;;15.00;8.77;;;9.00;66.00;;;;;;5131429;28;20235;-75
2021/04/30 02:25:56;;;;;;;16.20;8.47;;;9.00;66.10;;;;;;5102675;28;20214;-74
2021/04/30 02:28:22;;;;;;;12.83;8.07;;;9.00;66.30;;;;;;5098975;28;20461;-75
2021/04/30 02:30:48;;;;;;;16.00;9.23;;;9.00;67.90;;;;;;5112452;28;20211;-75
2021/04/30 02:33:13;;;;;;;15.10;7.97;;;9.10;68.50;;;;;;5110690;28;20183;-73
2021/04/30 02:35:41;;;;;;;17.37;9.07;;;9.10;67.90;;;;;;5092745;28;20258;-74
2021/04/30 02:38:12;;;;;;;16.20;8.93;;;9.10;66.90;;;;;;5092482;28;20180;-74
2021/04/30 02:40:39;;;;;;;12.93;8.50;;;9.00;67.70;;;;;;5091716;28;20791;-74
2021/04/30 02:43:17;;;;;;;14.43;7.93;;;9.00;69.40;;;;;;5108488;28;20463;-76
2021/04/30 02:45:44;;;;;;;17.77;9.23;;;9.00;69.40;;;;;;5112019;28;20485;-74
2021/04/30 02:48:21;;;;;;;17.90;9.67;;;9.00;68.30;;;;;;5112786;28;20477;-74
2021/04/30 02:50:47;;;;;;;16.40;9.53;;;8.90;69.40;;;;;;5112158;28;20460;-75
2021/04/30 02:53:13;;;;;;;14.67;9.43;;;8.80;68.60;;;;;;5107989;28;20417;-74
2021/04/30 02:55:39;;;;;;;13.10;8.50;;;8.80;69.10;;;;;;5094939;28;20189;-76
2021/04/30 02:58:05;;;;;;;17.10;9.90;;;8.70;70.20;;;;;;5113436;28;20185;-74
2021/04/30 03:00:31;;;;;;;14.30;9.20;;;8.70;71.30;;;;;;5113055;28;20192;-76
2021/04/30 03:02:57;;;;;;;19.87;9.53;;;8.60;72.00;;;;;;5114544;28;20440;-74
2021/04/30 03:05:24;;;;;;;15.63;9.50;;;8.60;73.00;;;;;;5114051;28;20420;-76
2021/04/30 03:07:50;;;;;;;12.17;8.80;;;8.70;72.40;;;;;;5113543;28;20483;-75
2021/04/30 03:10:17;;;;;;;16.20;9.47;;;8.70;73.50;;;;;;5111972;28;20434;-76
2021/04/30 03:12:43;;;;;;;16.30;9.10;;;8.70;74.50;;;;;;5105479;28;20445;-75
2021/04/30 03:15:10;;;;;;;17.50;9.30;;;8.80;75.80;;;;;;5107176;28;20787;-75
2021/04/30 03:17:35;;;;;;;21.40;10.53;;;8.80;76.10;;;;;;5110840;28;20420;-74
2021/04/30 03:20:02;;;;;;;17.77;10.67;;;8.90;73.90;;;;;;5110185;28;20507;-76
2021/04/30 03:22:28;;;;;;;16.97;9.47;;;8.90;72.40;;;;;;5096671;28;20225;-76
2021/04/30 03:24:53;;;;;;;16.93;9.90;;;8.80;71.70;;;;;;5112313;28;20417;-75
2021/04/30 03:27:19;;;;;;;21.20;10.77;;;8.90;72.10;;;;;;5112478;28;20190;-74
2021/04/30 03:29:45;;;;;;;16.67;9.47;;;8.80;72.90;;;;;;5110714;28;20273;-74
2021/04/30 03:32:11;;;;;;;15.47;9.33;;;8.80;72.40;;;;;;5097227;28;20316;-76
2021/04/30 03:34:37;;;;;;;19.70;9.70;;;8.80;72.40;;;;;;5110840;28;20265;-75
2021/04/30 03:37:04;;;;;;;17.70;9.83;;;8.80;70.10;;;;;;5111783;28;20186;-74
2021/04/30 03:39:30;;;;;;;18.90;9.70;;;8.80;70.10;;;;;;5111596;28;20412;-76
2021/04/30 03:41:55;;;;;;;18.47;10.67;;;8.80;70.70;;;;;;5105181;28;20449;-75
2021/04/30 03:44:21;;;;;;;16.97;9.33;;;8.80;70.20;;;;;;5108824;28;20458;-76
2021/04/30 03:46:47;;;;;;;18.53;9.90;;;8.60;70.40;;;;;;5113471;28;20554;-76
2021/04/30 03:49:13;;;;;;;18.27;10.40;;;8.60;70.80;;;;;;5115460;28;20436;-75
2021/04/30 03:51:39;;;;;;;16.20;10.03;;;8.70;71.10;;;;;;5109304;28;20517;-76
2021/04/30 03:54:04;;;;;;;13.73;9.60;;;8.70;71.00;;;;;;5107513;28;20473;-77
2021/04/30 03:56:30;;;;;;;18.90;9.30;;;8.80;70.70;;;;;;5093150;28;20194;-76
2021/04/30 03:58:56;;;;;;;19.73;10.17;;;8.80;70.70;;;;;;5107917;28;20440;-75
2021/04/30 04:01:22;;;;;;;17.50;9.00;;;8.80;70.40;;;;;;5113696;28;20214;-68
2021/04/30 04:03:47;;;;;;;16.90;8.80;;;8.80;69.10;;;;;;5113411;28;20531;-71
2021/04/30 04:06:13;;;;;;;14.23;8.67;;;8.70;68.80;;;;;;5119347;28;20266;-70
2021/04/30 04:08:39;;;;;;;15.90;9.50;;;8.70;69.10;;;;;;5097624;28;20604;-69
2021/04/30 04:11:05;;;;;;;14.87;9.47;;;8.70;69.40;;;;;;5089734;28;20301;-70
2021/04/30 04:13:31;;;;;;;14.17;9.00;;;8.60;69.90;;;;;;5091512;28;20660;-75
2021/04/30 04:16:02;;;;;;;18.73;10.30;;;8.60;69.90;;;;;;5104888;27;20508;-75
2021/04/30 04:18:28;;;;;;;19.03;10.23;;;8.60;69.20;;;;;;5105471;28;20186;-74
2021/04/30 04:20:54;;;;;;;15.97;9.00;;;8.60;68.60;;;;;;5111851;28;20448;-75
2021/04/30 04:23:20;;;;;;;17.33;8.40;;;8.60;69.10;;;;;;5110954;28;20436;-72
2021/04/30 04:25:46;;;;;;;17.50;9.77;;;8.70;68.30;;;;;;5112864;28;21124;-73
2021/04/30 04:28:11;;;;;;;18.37;10.93;;;8.60;68.50;;;;;;5097187;28;20317;-74
2021/04/30 04:30:37;;;;;;;17.63;9.47;;;8.50;69.50;;;;;;5109793;28;20913;-73
2021/04/30 04:33:03;;;;;;;17.57;10.03;;;8.50;70.10;;;;;;5113484;28;20833;-74
2021/04/30 04:35:29;;;;;;;21.23;11.63;;;8.50;69.80;;;;;;5114960;28;20182;-75
2021/04/30 04:37:55;;;;;;;23.47;10.93;;;8.50;69.80;;;;;;5116535;28;20724;-73
2021/04/30 04:40:22;;;;;;;21.27;10.33;;;8.50;70.20;;;;;;5113347;28;20416;-74
2021/04/30 04:42:48;;;;;;;14.60;8.73;;;8.50;70.80;;;;;;5112700;28;20974;-73
2021/04/30 04:45:15;;;;;;;17.47;10.27;;;8.50;70.40;;;;;;5102527;28;20423;-75
2021/04/30 04:47:42;;;;;;;22.23;11.00;;;8.60;70.20;;;;;;5098704;28;20817;-75
2021/04/30 04:50:09;;;;;;;18.43;9.50;;;8.60;70.80;;;;;;5110379;28;21019;-75
2021/04/30 04:52:34;;;;;;;20.90;10.97;;;8.60;71.00;;;;;;5109581;28;20440;-76
2021/04/30 04:55:00;;;;;;;19.00;11.33;;;8.60;70.80;;;;;;5099885;28;20424;-74
2021/04/30 04:57:26;;;;;;;19.70;11.13;;;8.70;70.50;;;;;;5110968;28;20186;-74
2021/04/30 04:59:52;;;;;;;17.13;10.53;;;8.70;70.80;;;;;;5110903;28;20446;-73
2021/04/30 05:02:17;;;;;;;17.00;10.10;;;8.80;70.50;;;;;;5110692;28;20202;-75
2021/04/30 05:04:44;;;;;;;18.93;10.87;;;8.90;70.10;;;;;;5111763;28;20194;-73
2021/04/30 05:07:10;;;;;;;22.60;11.20;;;9.00;69.90;;;;;;5110834;28;20190;-73
2021/04/30 05:09:36;;;;;;;22.00;10.57;;;8.90;69.80;;;;;;5110288;28;20526;-73
2021/04/30 05:12:01;;;;;;;16.50;10.00;;;8.90;70.20;;;;;;5112839;28;20228;-76
2021/04/30 05:14:27;;;;;;;20.90;11.60;;;8.80;70.40;;;;;;5119194;28;20178;-74
2021/04/30 05:16:53;;;;;;;26.50;11.37;;;8.70;70.70;;;;;;5117361;28;20252;-75
2021/04/30 05:19:19;;;;;;;20.70;10.40;;;8.70;71.00;;;;;;5114546;28;20269;-73
2021/04/30 05:21:46;;;;;;;18.00;11.27;;;8.80;70.70;;;;;;5118319;28;20217;-75
2021/04/30 05:24:13;;;;;;;18.53;10.83;;;8.80;69.80;;;;;;5117111;28;20183;-75
2021/04/30 05:26:38;;;;;;;19.93;10.23;;;8.70;69.50;;;;;;5116440;28;20420;-73
2021/04/30 05:29:05;;;;;;;20.57;11.30;;;8.70;69.70;;;;;;5115724;28;20811;-75
2021/04/30 05:31:32;;;;;;;17.30;10.77;;;8.80;69.50;;;;;;5115096;28;20697;-73
2021/04/30 05:33:58;;;;;;;22.83;11.00;;;8.80;69.50;;;;;;5116152;28;20445;-74
2021/04/30 05:36:23;;;;;;;19.93;11.00;;;8.80;69.70;;;;;;5116796;28;20404;-74
2021/04/30 05:38:50;;;;;;;20.90;10.80;;;8.80;69.80;;;;;;5117393;28;20412;-75
2021/04/30 05:41:16;;;;;;;23.33;12.20;;;8.80;69.20;;;;;;5116983;28;20202;-73
2021/04/30 05:43:41;;;;;;;19.97;11.50;;;8.80;69.40;;;;;;5114566;28;21163;-75
2021/04/30 05:46:07;;;;;;;20.00;11.23;;;8.90;69.50;;;;;;5101693;28;20658;-74
2021/04/30 05:48:33;;;;;;;21.67;12.17;;;8.80;69.70;;;;;;5108599;28;20206;-75
2021/04/30 05:50:58;;;;;;;20.60;11.57;;;8.90;70.10;;;;;;5110681;28;20278;-74
2021/04/30 05:53:24;;;;;;;23.80;13.43;;;8.90;70.70;;;;;;5106632;28;20665;-74
2021/04/30 05:55:50;;;;;;;19.43;10.97;;;9.00;71.00;;;;;;5109878;28;20257;-74
2021/04/30 05:58:16;;;;;;;25.93;12.33;;;9.00;70.80;;;;;;5112884;28;20460;-74
2021/04/30 06:00:42;;;;;;;20.60;11.63;;;9.00;70.20;;;;;;5112901;28;20186;-73
2021/04/30 06:03:08;;;;;;;22.13;11.87;;;8.90;69.70;;;;;;5103032;28;20464;-73
2021/04/30 06:05:33;;;;;;;22.53;12.23;;;8.80;69.90;;;;;;5101099;28;20187;-74
2021/04/30 06:07:59;;;;;;;20.63;11.67;;;8.80;69.50;;;;;;5107776;28;20186;-75
2021/04/30 06:10:25;;;;;;;19.80;10.47;;;8.90;69.70;;;;;;5095261;28;20245;-75
2021/04/30 06:12:50;;;;;;;20.53;11.13;;;8.90;69.20;;;;;;5114569;28;20553;-74
2021/04/30 06:15:16;;;;;;;21.50;12.00;;;8.90;68.80;;;;;;5114142;28;20185;-75
2021/04/30 06:17:42;;;;;;;20.27;12.10;;;9.00;68.60;;;;;;5107532;28;20190;-73
2021/04/30 06:20:08;;;;;;;24.10;11.97;;;8.90;69.10;;;;;;5108872;28;20503;-74
2021/04/30 06:22:35;;;;;;;25.40;10.70;;;8.60;69.70;;;;;;5114067;28;20554;-74
2021/04/30 06:25:02;;;;;;;19.93;10.50;;;8.70;69.70;;;;;;5113694;28;20760;-74
2021/04/30 06:27:28;;;;;;;19.63;10.97;;;8.80;69.70;;;;;;5112480;28;20421;-74
2021/04/30 06:29:53;;;;;;;18.73;10.60;;;8.80;68.90;;;;;;5112133;28;20485;-75
2021/04/30 06:32:19;;;;;;;21.97;10.83;;;8.50;69.10;;;;;;5112317;28;20841;-74
2021/04/30 06:34:46;;;;;;;17.27;10.73;;;8.40;69.90;;;;;;5111786;28;20202;-74
2021/04/30 06:37:12;;;;;;;20.27;12.27;;;8.30;70.50;;;;;;5101281;28;21316;-73
2021/04/30 06:39:38;;;;;;;21.40;11.57;;;8.20;70.80;;;;;;5111357;28;20432;-74
2021/04/30 06:42:06;;;;;;;26.47;11.13;;;8.30;71.30;;;;;;5113393;28;20674;-75
2021/04/30 06:44:32;;;;;;;21.07;11.53;;;8.50;70.50;;;;;;5113511;28;20428;-76
2021/04/30 06:46:58;;;;;;;17.50;9.77;;;8.50;70.50;;;;;;5114656;28;20416;-74
2021/04/30 06:49:24;;;;;;;22.10;11.10;;;8.60;70.40;;;;;;5112705;28;20456;-74
2021/04/30 06:51:50;;;;;;;19.33;10.33;;;8.70;70.20;;;;;;5112961;28;20537;-75
2021/04/30 06:54:17;;;;;;;20.90;11.20;;;8.70;69.40;;;;;;5112593;28;20424;-74
2021/04/30 06:56:42;;;;;;;19.30;10.33;;;8.60;70.40;;;;;;5113829;28;20513;-74
2021/04/30 06:59:08;;;;;;;20.13;10.63;;;8.70;70.20;;;;;;5112261;28;20479;-73
2021/04/30 07:01:34;;;;;;;21.30;11.17;;;8.80;69.70;;;;;;5112502;28;20218;-75
2021/04/30 07:04:00;;;;;;;18.20;10.80;;;8.90;69.90;;;;;;5112998;28;20443;-75
2021/04/30 07:06:26;;;;;;;21.40;11.00;;;8.70;69.70;;;;;;5113102;28;20197;-75
2021/04/30 07:08:52;;;;;;;18.50;10.13;;;8.50;70.20;;;;;;5111660;28;20206;-74
2021/04/30 07:11:18;;;;;;;20.60;10.70;;;8.40;71.00;;;;;;5112446;28;20210;-73
2021/04/30 07:13:44;;;;;;;21.10;10.50;;;8.40;71.40;;;;;;5112076;28;20430;-74
2021/04/30 07:16:10;;;;;;;22.57;11.23;;;8.50;71.40;;;;;;5112301;28;20444;-74
2021/04/30 07:18:35;;;;;;;23.30;12.30;;;8.60;70.20;;;;;;5111217;28;20182;-75
2021/04/30 07:21:01;;;;;;;21.60;11.47;;;8.50;69.50;;;;;;5103321;28;20440;-76
2021/04/30 07:23:28;;;;;;;17.37;9.90;;;8.50;70.10;;;;;;5090965;28;20266;-75
2021/04/30 07:25:54;;;;;;;22.20;10.20;;;8.60;70.20;;;;;;5091900;28;20508;-74
2021/04/30 07:28:20;;;;;;;19.83;10.60;;;8.80;70.10;;;;;;5099434;28;20437;-73
2021/04/30 07:30:46;;;;;;;19.17;10.90;;;8.90;69.20;;;;;;5128328;28;20499;-75
2021/04/30 07:33:12;;;;;;;21.27;10.30;;;9.00;68.60;;;;;;5120774;28;20187;-74
2021/04/30 07:35:41;;;;;;;19.30;10.20;;;9.10;68.50;;;;;;5102764;28;20444;-75
2021/04/30 07:38:09;;;;;;;23.77;12.60;;;9.20;68.20;;;;;;5090314;28;20187;-76
2021/04/30 07:40:40;;;;;;;20.63;10.90;;;9.20;68.80;;;;;;5099311;28;20416;-76
2021/04/30 07:43:09;;;;;;;20.97;10.60;;;9.20;68.90;;;;;;5109969;28;20448;-76
2021/04/30 07:45:37;;;;;;;17.70;10.47;;;9.10;69.20;;;;;;5100448;28;20891;-77
2021/04/30 07:48:02;;;;;;;17.70;11.07;;;9.10;69.40;;;;;;5088731;28;20449;-73
2021/04/30 07:50:28;;;;;;;18.17;10.70;;;9.00;70.20;;;;;;5090516;28;20429;-74
2021/04/30 07:52:54;;;;;;;23.90;13.20;;;8.90;70.50;;;;;;5095179;28;20523;-74
2021/04/30 07:55:20;;;;;;;24.03;12.23;;;8.80;71.00;;;;;;5098899;28;20497;-74
2021/04/30 07:57:46;;;;;;;19.70;11.00;;;8.80;71.60;;;;;;5088782;28;20195;-75
2021/04/30 08:00:13;;;;;;;16.30;10.00;;;8.80;71.60;;;;;;5090066;28;20421;-74
2021/04/30 08:02:38;;;;;;;20.13;10.83;;;8.90;71.70;;;;;;5104166;28;20207;-74
2021/04/30 08:05:05;;;;;;;18.87;10.80;;;9.00;71.30;;;;;;5090560;28;20444;-74
2021/04/30 08:07:31;;;;;;;26.13;11.70;;;8.90;71.30;;;;;;5090572;28;20463;-76
2021/04/30 08:09:57;;;;;;;21.63;10.73;;;8.70;71.70;;;;;;5102826;28;20804;-75
2021/04/30 08:12:22;;;;;;;21.67;10.93;;;8.80;72.30;;;;;;5111411;28;20297;-76
2021/04/30 08:14:48;;;;;;;22.63;10.87;;;8.80;71.60;;;;;;5111752;28;20466;-76
2021/04/30 08:17:14;;;;;;;20.80;11.00;;;8.70;71.80;;;;;;5111000;28;20322;-73
2021/04/30 08:19:40;;;;;;;21.90;10.93;;;8.60;72.10;;;;;;5112784;28;20210;-75
2021/04/30 08:22:07;;;;;;;26.03;12.20;;;8.60;73.20;;;;;;5142532;27;20459;-77
2021/04/30 08:24:33;;;;;;;20.60;10.67;;;8.60;73.00;;;;;;5133089;27;20441;-76
2021/04/30 08:26:59;;;;;;;20.53;11.67;;;8.50;73.60;;;;;;5124679;28;20818;-75
2021/04/30 08:29:25;;;;;;;21.30;11.23;;;8.50;73.60;;;;;;5124880;28;20963;-76
2021/04/30 08:31:51;;;;;;;20.90;10.57;;;8.50;73.60;;;;;;5097140;28;20468;-75
2021/04/30 08:34:16;;;;;;;20.80;10.03;;;8.60;73.70;;;;;;5099788;28;20179;-74
2021/04/30 08:36:42;;;;;;;21.70;10.77;;;8.60;73.50;;;;;;5103515;28;20206;-75
2021/04/30 08:39:12;;;;;;;16.67;10.17;;;8.60;73.30;;;;;;5089995;28;20255;-75
2021/04/30 08:41:39;;;;;;;22.23;11.20;;;8.80;73.50;;;;;;5107813;28;20198;-76
2021/04/30 08:44:05;;;;;;;20.93;10.93;;;8.80;72.90;;;;;;5109760;28;20950;-76
2021/04/30 08:46:32;;;;;;;19.73;10.67;;;9.00;72.60;;;;;;5091015;28;20439;-76
2021/04/30 08:49:06;;;;;;;20.07;10.40;;;9.10;71.40;;;;;;5088632;28;20432;-74
2021/04/30 08:51:33;;;;;;;19.30;11.40;;;9.00;71.10;;;;;;5088244;28;20555;-76
2021/04/30 08:54:01;;;;;;;20.10;11.53;;;9.00;71.70;;;;;;5101174;28;20512;-75
2021/04/30 08:56:27;;;;;;;20.93;11.30;;;9.10;71.00;;;;;;5110254;28;20435;-75
2021/04/30 08:58:53;;;;;;;21.30;10.33;;;9.00;71.10;;;;;;5094331;28;20937;-72
2021/04/30 09:01:20;;;;;;;18.17;10.87;;;9.00;70.40;;;;;;5088537;28;20210;-74
2021/04/30 09:03:47;;;;;;;21.20;10.87;;;9.10;70.10;;;;;;5089014;28;20513;-75
2021/04/30 09:06:18;;;;;;;19.50;10.63;;;9.00;69.70;;;;;;5088933;28;20442;-74
2021/04/30 09:08:49;;;;;;;20.70;10.73;;;8.90;70.10;;;;;;5088428;28;20521;-74
2021/04/30 09:11:38;;;;;;;23.90;12.97;;;9.00;71.00;;;;;;5089056;28;20550;-74
2021/04/30 09:14:20;;;;;;;18.90;11.63;;;9.00;71.30;;;;;;5091114;28;20420;-74
2021/04/30 09:17:09;;;;;;;21.20;11.37;;;9.00;71.60;;;;;;5089293;28;20421;-75
2021/04/30 09:19:38;;;;;;;18.33;11.20;;;8.90;71.70;;;;;;5098338;28;20503;-73
2021/04/30 09:22:09;;;;;;;21.07;11.07;;;8.80;71.80;;;;;;5109803;28;20812;-74
2021/04/30 09:24:36;;;;;;;22.77;12.10;;;8.80;73.30;;;;;;5109296;28;20427;-75
2021/04/30 09:27:02;;;;;;;23.87;11.50;;;8.70;74.60;;;;;;5109072;28;20416;-73
2021/04/30 09:29:32;;;;;;;24.00;12.30;;;8.60;76.10;;;;;;5106960;28;20454;-74
2021/04/30 09:31:58;;;;;;;20.80;12.33;;;8.50;76.80;;;;;;5095465;28;20506;-73
2021/04/30 09:34:30;;;;;;;22.03;12.00;;;8.50;77.10;;;;;;5108963;28;20420;-74
2021/04/30 09:36:56;;;;;;;25.00;11.80;;;8.60;77.00;;;;;;5109174;28;20427;-73
2021/04/30 09:39:22;;;;;;;23.13;13.83;;;8.70;76.70;;;;;;5108638;28;20429;-73
2021/04/30 09:42:11;;;;;;;26.07;13.53;;;8.80;76.40;;;;;;5115880;28;20451;-75
2021/04/30 09:44:39;;;;;;;22.50;13.40;;;8.80;76.10;;;;;;5099679;28;20187;-75
2021/04/30 09:47:20;;;;;;;27.77;12.40;;;8.80;76.10;;;;;;5099409;28;20524;-73
2021/04/30 09:49:46;;;;;;;26.97;12.90;;;8.60;76.20;;;;;;5091604;28;20440;-74
2021/04/30 09:52:12;;;;;;;24.03;13.00;;;8.50;77.30;;;;;;5095890;28;20491;-75
2021/04/30 09:54:40;;;;;;;27.53;14.80;;;8.60;77.80;;;;;;5101302;28;20421;-75
2021/04/30 09:57:05;;;;;;;25.50;12.57;;;8.60;78.00;;;;;;5089399;28;20425;-74
2021/04/30 09:59:31;;;;;;;24.73;13.20;;;8.60;78.40;;;;;;5089275;28;20493;-73
2021/04/30 10:02:11;;;;;;;27.20;13.87;;;8.80;78.30;;;;;;5092164;28;20675;-76
2021/04/30 10:04:38;;;;;;;21.60;12.93;;;8.90;76.80;;;;;;5092100;28;20428;-75
2021/04/30 10:07:05;;;;;;;25.40;13.00;;;8.90;76.40;;;;;;5090868;28;20469;-75
2021/04/30 10:09:32;;;;;;;24.33;13.23;;;8.80;77.10;;;;;;5091025;28;20417;-74
2021/04/30 10:12:16;;;;;;;29.63;14.37;;;8.90;77.60;;;;;;5091942;28;20472;-75
2021/04/30 10:14:42;;;;;;;32.17;15.47;;;8.90;77.00;;;;;;5092027;28;20416;-76
2021/04/30 10:17:07;;;;;;;25.10;14.17;;;8.80;77.80;;;;;;5096189;28;20424;-75
2021/04/30 10:19:33;;;;;;;29.13;14.30;;;8.80;78.70;;;;;;5111073;28;20839;-75
2021/04/30 10:22:01;;;;;;;23.73;14.20;;;8.60;78.60;;;;;;5112519;28;20210;-75
2021/04/30 10:24:29;;;;;;;24.13;13.70;;;8.60;79.90;;;;;;5112907;28;20206;-76
2021/04/30 10:26:57;;;;;;;27.93;14.53;;;8.80;80.30;;;;;;5110666;28;20436;-75
2021/04/30 10:29:26;;;;;;;25.93;14.03;;;8.80;80.30;;;;;;5098630;28;20460;-73
2021/04/30 10:31:56;;;;;;;26.53;13.30;;;8.90;80.20;;;;;;5095669;28;20990;-75
2021/04/30 10:34:26;;;;;;;27.00;14.90;;;9.00;80.80;;;;;;5111732;28;20438;-73
2021/04/30 10:36:55;;;;;;;29.40;14.03;;;9.00;80.20;;;;;;5094668;28;20421;-73
2021/04/30 10:39:32;;;;;;;29.23;16.17;;;8.90;81.50;;;;;;5093281;28;20429;-73
2021/04/30 10:42:11;;;;;;;28.83;14.53;;;8.60;81.80;;;;;;5104315;28;20444;-74
2021/04/30 10:44:46;;;;;;;31.70;15.73;;;8.50;82.50;;;;;;5093420;28;21191;-74
2021/04/30 10:47:11;;;;;;;35.60;16.17;;;8.40;83.40;;;;;;5090977;28;20436;-75
2021/04/30 10:49:37;;;;;;;34.17;18.27;;;8.40;83.30;;;;;;5106025;28;20483;-74
2021/04/30 10:54:35;;;;;;;40.17;18.07;;;8.30;84.70;;;;;;5102620;28;20423;-73
2021/04/30 10:57:04;;;;;;;34.33;17.37;;;8.20;84.60;;;;;;5089838;28;20421;-72
2021/04/30 10:59:36;;;;;;;33.43;17.70;;;8.10;85.30;;;;;;5092381;28;20512;-74
2021/04/30 11:02:28;;;;;;;34.57;17.20;;;7.90;86.60;;;;;;5091111;28;20535;-74
2021/04/30 11:05:03;;;;;;;36.23;17.47;;;8.10;87.60;;;;;;5092460;28;20503;-75
2021/04/30 11:07:30;;;;;;;37.63;18.10;;;8.00;87.10;;;;;;5092923;28;20433;-73
2021/04/30 11:09:56;;;;;;;35.33;18.23;;;7.90;88.30;;;;;;5109386;28;20500;-74
2021/04/30 11:12:27;;;;;;;31.43;16.77;;;7.80;87.70;;;;;;5119566;28;20483;-72
2021/04/30 11:15:10;;;;;;;44.53;19.40;;;7.80;89.70;;;;;;5096017;28;20187;-74
2021/04/30 11:17:49;;;;;;;29.10;15.27;;;7.80;90.40;;;;;;5108502;28;20424;-75
2021/04/30 11:20:17;;;;;;;32.77;17.07;;;7.70;87.40;;;;;;5114951;28;20416;-73
2021/04/30 11:23:15;;;;;;;35.30;16.90;;;7.50;87.80;;;;;;5100258;28;20432;-74
2021/04/30 11:26:07;;;;;;;34.97;16.93;;;7.50;89.50;;;;;;5110881;28;20416;-77
2021/04/30 11:28:33;;;;;;;31.43;16.13;;;7.40;90.50;;;;;;5099345;28;20819;-76
2021/04/30 11:31:06;;;;;;;36.07;16.47;;;7.30;89.70;;;;;;5092678;28;20463;-73
2021/04/30 11:33:34;;;;;;;37.17;16.67;;;7.20;89.90;;;;;;5094832;28;20412;-74
2021/04/30 11:36:01;;;;;;;32.70;16.87;;;7.20;90.60;;;;;;5097578;28;20425;-74
2021/04/30 11:38:41;;;;;;;33.20;16.80;;;7.30;90.30;;;;;;5087628;28;20425;-74
2021/04/30 11:41:09;;;;;;;33.60;15.03;;;7.30;90.30;;;;;;5102339;28;20473;-73
2021/04/30 11:43:40;;;;;;;37.07;18.17;;;7.20;90.00;;;;;;5102788;28;20462;-73
2021/04/30 11:46:06;;;;;;;31.57;16.77;;;7.10;90.40;;;;;;5105077;28;20424;-74
2021/04/30 11:48:33;;;;;;;34.07;16.00;;;7.00;90.40;;;;;;5107833;28;20503;-73
2021/04/30 11:51:03;;;;;;;35.07;16.30;;;7.00;90.60;;;;;;5108963;28;20460;-75
2021/04/30 11:53:30;;;;;;;33.47;16.00;;;7.00;91.20;;;;;;5098333;28;20423;-74
2021/04/30 11:55:57;;;;;;;26.30;14.63;;;7.00;91.00;;;;;;5109447;28;20427;-74
2021/04/30 11:58:35;;;;;;;31.30;16.27;;;7.00;91.20;;;;;;5109494;28;20417;-76
2021/04/30 12:01:01;;;;;;;40.03;17.73;;;7.00;91.20;;;;;;5092009;28;20421;-73
2021/04/30 12:03:27;;;;;;;32.77;16.07;;;6.90;91.10;;;;;;5090695;28;20462;-74
2021/04/30 12:05:54;;;;;;;35.03;16.83;;;7.00;91.70;;;;;;5094891;28;20520;-76
2021/04/30 12:08:19;;;;;;;33.50;14.73;;;7.10;92.40;;;;;;5098192;28;20284;-75
2021/04/30 12:10:45;;;;;;;30.07;15.87;;;7.10;92.30;;;;;;5090786;28;20490;-75
2021/04/30 12:13:21;;;;;;;28.90;15.03;;;7.20;92.50;;;;;;5089878;28;20290;-74
2021/04/30 12:15:47;;;;;;;27.43;14.00;;;7.20;93.10;;;;;;5093194;28;20752;-75
2021/04/30 12:18:13;;;;;;;31.20;16.03;;;7.00;92.80;;;;;;5095029;28;20511;-75
2021/04/30 12:20:41;;;;;;;28.87;15.33;;;6.90;92.90;;;;;;5120461;28;20802;-75
2021/04/30 12:23:09;;;;;;;32.90;16.00;;;6.90;93.40;;;;;;5116266;28;20604;-74
2021/04/30 12:25:44;;;;;;;27.73;13.60;;;7.00;93.70;;;;;;5114970;28;20491;-74
2021/04/30 12:28:30;;;;;;;24.83;12.83;;;6.90;92.70;;;;;;5121588;28;20469;-73
2021/04/30 12:31:00;;;;;;;31.50;13.57;;;6.90;93.00;;;;;;5112638;28;20458;-74
2021/04/30 12:33:31;;;;;;;32.40;16.10;;;6.90;93.70;;;;;;5114330;28;20431;-74
2021/04/30 12:36:03;;;;;;;25.97;12.50;;;6.90;93.90;;;;;;5111721;28;20477;-75
2021/04/30 12:38:30;;;;;;;36.03;14.60;;;7.00;93.90;;;;;;5110952;28;20416;-76
2021/04/30 12:41:02;;;;;;;29.57;13.97;;;7.10;93.60;;;;;;5112402;28;20427;-74
2021/04/30 12:43:29;;;;;;;24.87;13.37;;;7.10;92.40;;;;;;5108287;27;20524;-74
2021/04/30 12:45:56;;;;;;;29.93;14.63;;;7.10;92.20;;;;;;5114199;28;20416;-75